sensor_id;sensor_type;location;lat;lon;timestamp;P1;durP1;ratioP1;P2;durP2;ratioP2
2756;SDS011;1386;50.862;6.494;2024-03-22T00:00:35;17.47;;;11.17;;
2756;SDS011;1386;50.862;6.494;2024-03-22T00:03:03;15.37;;;10.40;;
2756;SDS011;1386;50.862;6.494;2024-03-22T00:05:30;19.00;;;10.93;;
2756;SDS011;1386;50.862;6.494;2024-03-22T00:07:56;15.37;;;10.27;;
2756;SDS011;1386;50.862;6.494;2024-03-22T00:10:23;17.83;;;11.20;;
2756;SDS011;1386;50.862;6.494;2024-03-22T00:12:49;17.47;;;10.40;;
2756;SDS011;1386;50.862;6.494;2024-03-22T00:15:16;17.13;;;12.10;;
2756;SDS011;1386;50.862;6.494;2024-03-22T00:17:42;13.67;;;9.63;;
2756;SDS011;1386;50.862;6.494;2024-03-22T00:20:12;18.23;;;10.07;;
2756;SDS011;1386;50.862;6.494;2024-03-22T00:22:38;17.37;;;11.57;;
2756;SDS011;1386;50.862;6.494;2024-03-22T00:25:05;17.77;;;9.93;;
2756;SDS011;1386;50.862;6.494;2024-03-22T00:27:31;15.13;;;9.67;;
2756;SDS011;1386;50.862;6.494;2024-03-22T00:29:58;14.50;;;10.37;;
2756;SDS011;1386;50.862;6.494;2024-03-22T00:32:24;16.90;;;11.17;;
2756;SDS011;1386;50.862;6.494;2024-03-22T00:34:52;13.60;;;10.63;;
2756;SDS011;1386;50.862;6.494;2024-03-22T00:37:19;15.10;;;10.50;;
2756;SDS011;1386;50.862;6.494;2024-03-22T00:39:47;16.17;;;11.17;;
2756;SDS011;1386;50.862;6.494;2024-03-22T00:42:12;16.20;;;10.57;;
2756;SDS011;1386;50.862;6.494;2024-03-22T00:44:39;16.07;;;10.70;;
2756;SDS011;1386;50.862;6.494;2024-03-22T00:47:06;15.13;;;10.03;;
2756;SDS011;1386;50.862;6.494;2024-03-22T00:49:33;14.37;;;9.73;;
2756;SDS011;1386;50.862;6.494;2024-03-22T00:51:59;15.93;;;10.00;;
2756;SDS011;1386;50.862;6.494;2024-03-22T00:54:28;16.43;;;10.27;;
2756;SDS011;1386;50.862;6.494;2024-03-22T00:56:53;16.60;;;10.23;;
2756;SDS011;1386;50.862;6.494;2024-03-22T00:59:21;13.80;;;9.37;;
2756;SDS011;1386;50.862;6.494;2024-03-22T01:01:50;17.10;;;9.80;;
2756;SDS011;1386;50.862;6.494;2024-03-22T01:04:17;14.57;;;9.97;;
2756;SDS011;1386;50.862;6.494;2024-03-22T01:06:43;16.97;;;10.40;;
2756;SDS011;1386;50.862;6.494;2024-03-22T01:09:10;16.97;;;9.90;;
2756;SDS011;1386;50.862;6.494;2024-03-22T01:11:38;14.50;;;10.20;;
2756;SDS011;1386;50.862;6.494;2024-03-22T01:14:05;15.47;;;10.23;;
2756;SDS011;1386;50.862;6.494;2024-03-22T01:16:39;16.03;;;10.07;;
2756;SDS011;1386;50.862;6.494;2024-03-22T01:19:26;13.87;;;10.03;;
2756;SDS011;1386;50.862;6.494;2024-03-22T01:21:52;11.63;;;9.33;;
2756;SDS011;1386;50.862;6.494;2024-03-22T01:24:19;12.70;;;8.83;;
2756;SDS011;1386;50.862;6.494;2024-03-22T01:26:46;14.60;;;8.90;;
2756;SDS011;1386;50.862;6.494;2024-03-22T10:52:37;21.87;;;11.83;;
2756;SDS011;1386;50.862;6.494;2024-03-22T10:55:07;14.60;;;11.00;;
2756;SDS011;1386;50.862;6.494;2024-03-22T10:57:37;16.83;;;13.00;;
2756;SDS011;1386;50.862;6.494;2024-03-22T11:00:04;15.40;;;11.40;;
2756;SDS011;1386;50.862;6.494;2024-03-22T11:02:35;15.00;;;11.80;;
2756;SDS011;1386;50.862;6.494;2024-03-22T11:05:02;17.50;;;11.97;;
2756;SDS011;1386;50.862;6.494;2024-03-22T11:07:29;15.90;;;11.80;;
2756;SDS011;1386;50.862;6.494;2024-03-22T11:09:58;16.17;;;10.57;;
2756;SDS011;1386;50.862;6.494;2024-03-22T11:12:26;16.60;;;11.83;;
2756;SDS011;1386;50.862;6.494;2024-03-22T11:14:58;16.27;;;11.80;;
2756;SDS011;1386;50.862;6.494;2024-03-22T11:17:35;16.87;;;11.90;;
2756;SDS011;1386;50.862;6.494;2024-03-22T11:20:12;18.47;;;13.07;;
2756;SDS011;1386;50.862;6.494;2024-03-22T11:22:52;20.40;;;12.13;;
2756;SDS011;1386;50.862;6.494;2024-03-22T11:25:27;15.60;;;11.40;;
2756;SDS011;1386;50.862;6.494;2024-03-22T11:27:53;13.40;;;10.40;;
2756;SDS011;1386;50.862;6.494;2024-03-22T11:30:20;14.90;;;10.40;;
2756;SDS011;1386;50.862;6.494;2024-03-22T11:32:46;16.37;;;11.07;;
2756;SDS011;1386;50.862;6.494;2024-03-22T11:35:14;14.40;;;10.90;;
2756;SDS011;1386;50.862;6.494;2024-03-22T11:37:40;24.37;;;11.27;;
2756;SDS011;1386;50.862;6.494;2024-03-22T11:40:08;14.57;;;9.87;;
2756;SDS011;1386;50.862;6.494;2024-03-22T11:42:37;11.50;;;9.53;;
2756;SDS011;1386;50.862;6.494;2024-03-22T11:45:06;12.23;;;8.57;;
2756;SDS011;1386;50.862;6.494;2024-03-22T11:47:35;12.13;;;9.00;;
2756;SDS011;1386;50.862;6.494;2024-03-22T11:50:03;12.23;;;9.40;;
2756;SDS011;1386;50.862;6.494;2024-03-22T11:52:30;11.93;;;9.27;;
2756;SDS011;1386;50.862;6.494;2024-03-22T11:54:57;13.33;;;10.10;;
2756;SDS011;1386;50.862;6.494;2024-03-22T11:57:23;12.33;;;9.73;;
2756;SDS011;1386;50.862;6.494;2024-03-22T11:59:52;15.00;;;9.87;;
2756;SDS011;1386;50.862;6.494;2024-03-22T12:02:24;12.33;;;9.27;;
2756;SDS011;1386;50.862;6.494;2024-03-22T12:04:51;11.10;;;8.60;;
2756;SDS011;1386;50.862;6.494;2024-03-22T12:07:17;11.63;;;9.10;;
2756;SDS011;1386;50.862;6.494;2024-03-22T12:09:45;11.83;;;9.97;;
2756;SDS011;1386;50.862;6.494;2024-03-22T12:12:11;14.57;;;10.17;;
2756;SDS011;1386;50.862;6.494;2024-03-22T12:14:39;12.90;;;10.40;;
2756;SDS011;1386;50.862;6.494;2024-03-22T12:17:06;14.70;;;10.30;;
2756;SDS011;1386;50.862;6.494;2024-03-22T12:19:33;14.47;;;10.53;;
2756;SDS011;1386;50.862;6.494;2024-03-22T12:22:00;14.53;;;10.30;;
2756;SDS011;1386;50.862;6.494;2024-03-22T12:24:27;16.33;;;10.90;;
2756;SDS011;1386;50.862;6.494;2024-03-22T12:26:53;25.07;;;11.33;;
2756;SDS011;1386;50.862;6.494;2024-03-22T12:29:20;13.30;;;10.73;;
2756;SDS011;1386;50.862;6.494;2024-03-22T12:31:47;12.37;;;10.13;;
2756;SDS011;1386;50.862;6.494;2024-03-22T12:34:15;16.63;;;9.93;;
2756;SDS011;1386;50.862;6.494;2024-03-22T12:36:42;19.23;;;11.70;;
2756;SDS011;1386;50.862;6.494;2024-03-22T12:39:09;15.30;;;10.00;;
2756;SDS011;1386;50.862;6.494;2024-03-22T12:41:35;15.00;;;10.20;;
2756;SDS011;1386;50.862;6.494;2024-03-22T12:44:02;14.63;;;9.80;;
2756;SDS011;1386;50.862;6.494;2024-03-22T12:46:29;21.60;;;12.53;;
2756;SDS011;1386;50.862;6.494;2024-03-22T12:48:56;13.90;;;10.80;;
2756;SDS011;1386;50.862;6.494;2024-03-22T12:51:23;18.60;;;10.80;;
2756;SDS011;1386;50.862;6.494;2024-03-22T12:53:50;14.27;;;10.33;;
2756;SDS011;1386;50.862;6.494;2024-03-22T12:56:17;12.33;;;10.20;;
2756;SDS011;1386;50.862;6.494;2024-03-22T14:47:36;11.90;;;7.20;;
2756;SDS011;1386;50.862;6.494;2024-03-22T14:50:05;11.90;;;7.20;;
2756;SDS011;1386;50.862;6.494;2024-03-22T14:52:32;10.60;;;7.60;;
2756;SDS011;1386;50.862;6.494;2024-03-22T14:54:59;9.00;;;7.13;;
2756;SDS011;1386;50.862;6.494;2024-03-22T14:57:25;10.37;;;7.87;;
2756;SDS011;1386;50.862;6.494;2024-03-22T17:11:59;16.50;;;14.10;;
2756;SDS011;1386;50.862;6.494;2024-03-22T17:14:28;18.70;;;14.70;;
2756;SDS011;1386;50.862;6.494;2024-03-22T17:16:54;16.50;;;14.37;;
2756;SDS011;1386;50.862;6.494;2024-03-22T17:19:23;20.03;;;14.60;;
2756;SDS011;1386;50.862;6.494;2024-03-22T17:21:48;19.30;;;13.87;;
2756;SDS011;1386;50.862;6.494;2024-03-22T17:24:16;18.10;;;13.83;;
2756;SDS011;1386;50.862;6.494;2024-03-22T17:26:42;18.40;;;13.23;;
2756;SDS011;1386;50.862;6.494;2024-03-22T19:07:34;13.40;;;12.00;;
2756;SDS011;1386;50.862;6.494;2024-03-22T19:10:01;12.60;;;10.53;;
2756;SDS011;1386;50.862;6.494;2024-03-22T19:12:27;12.23;;;11.00;;
2756;SDS011;1386;50.862;6.494;2024-03-22T19:14:54;11.00;;;9.73;;
2756;SDS011;1386;50.862;6.494;2024-03-22T19:17:20;11.50;;;10.30;;
2756;SDS011;1386;50.862;6.494;2024-03-22T19:19:48;11.60;;;9.93;;
2756;SDS011;1386;50.862;6.494;2024-03-22T19:22:15;11.57;;;10.37;;
2756;SDS011;1386;50.862;6.494;2024-03-22T19:24:42;10.50;;;8.77;;
2756;SDS011;1386;50.862;6.494;2024-03-22T19:27:09;10.10;;;9.00;;
2756;SDS011;1386;50.862;6.494;2024-03-22T19:29:35;10.03;;;8.60;;
2756;SDS011;1386;50.862;6.494;2024-03-22T19:32:02;10.07;;;8.47;;
2756;SDS011;1386;50.862;6.494;2024-03-22T19:34:28;10.33;;;8.63;;
2756;SDS011;1386;50.862;6.494;2024-03-22T19:36:56;10.30;;;9.10;;
2756;SDS011;1386;50.862;6.494;2024-03-22T19:39:22;9.30;;;8.20;;
2756;SDS011;1386;50.862;6.494;2024-03-22T19:41:52;9.33;;;8.30;;
2756;SDS011;1386;50.862;6.494;2024-03-22T19:44:18;9.10;;;7.60;;
2756;SDS011;1386;50.862;6.494;2024-03-22T19:46:45;10.43;;;9.13;;
2756;SDS011;1386;50.862;6.494;2024-03-22T19:49:11;9.80;;;8.40;;
2756;SDS011;1386;50.862;6.494;2024-03-22T19:51:38;9.53;;;8.53;;
2756;SDS011;1386;50.862;6.494;2024-03-22T19:54:04;9.20;;;7.77;;
2756;SDS011;1386;50.862;6.494;2024-03-22T19:56:31;8.73;;;7.70;;
2756;SDS011;1386;50.862;6.494;2024-03-22T19:58:59;9.87;;;8.17;;
2756;SDS011;1386;50.862;6.494;2024-03-22T20:01:26;8.80;;;7.40;;
2756;SDS011;1386;50.862;6.494;2024-03-22T20:03:52;9.10;;;8.00;;
2756;SDS011;1386;50.862;6.494;2024-03-22T20:06:19;10.67;;;9.60;;
2756;SDS011;1386;50.862;6.494;2024-03-22T20:08:45;10.00;;;8.80;;
2756;SDS011;1386;50.862;6.494;2024-03-22T20:11:12;11.03;;;8.60;;
2756;SDS011;1386;50.862;6.494;2024-03-22T20:13:38;10.73;;;9.00;;
2756;SDS011;1386;50.862;6.494;2024-03-22T20:16:07;10.17;;;9.00;;
2756;SDS011;1386;50.862;6.494;2024-03-22T20:18:33;11.90;;;9.93;;
2756;SDS011;1386;50.862;6.494;2024-03-22T20:21:00;13.40;;;10.13;;
2756;SDS011;1386;50.862;6.494;2024-03-22T20:23:26;12.13;;;9.90;;
2756;SDS011;1386;50.862;6.494;2024-03-22T20:25:53;11.00;;;9.13;;
2756;SDS011;1386;50.862;6.494;2024-03-22T20:28:19;11.30;;;9.40;;
2756;SDS011;1386;50.862;6.494;2024-03-22T20:30:46;11.30;;;9.17;;
2756;SDS011;1386;50.862;6.494;2024-03-22T20:33:14;12.30;;;10.37;;
2756;SDS011;1386;50.862;6.494;2024-03-22T20:35:41;11.73;;;10.30;;
2756;SDS011;1386;50.862;6.494;2024-03-22T20:38:07;10.63;;;8.60;;
